Time;durP1;ratioP1;P1;durP2;ratioP2;P2;SDS_P1;SDS_P2;PMS_P1;PMS_P2;Temp;Humidity;BMP_temperature;BMP_pressure;BME280_temperature;BME280_humidity;BME280_pressure;Samples;Min_cycle;Max_cycle;Signal;HPM_P1;HPM_P2
2022/01/25 00:08:18;;;;;;;21.73;11.80;;;;;;;4.12;88.96;102750.81;5012820;28;20094;-82
2022/01/25 00:10:14;;;;;;;24.15;14.20;;;;;;;4.07;89.02;102754.00;5030125;28;20036;-81
2022/01/25 00:15:59;;;;;;;24.08;14.60;;;;;;;4.08;89.40;102748.88;5046163;28;20097;-84
2022/01/25 00:24:21;;;;;;;21.00;13.10;;;;;;;4.11;89.80;102746.44;4973273;28;20053;-86
2022/01/25 00:27:01;;;;;;;25.77;13.20;;;;;;;4.12;89.40;102749.94;5018970;28;20072;-85
2022/01/25 00:29:36;;;;;;;24.75;14.95;;;;;;;4.10;89.20;102746.38;5021597;28;20064;-86
2022/01/25 00:32:04;;;;;;;21.63;11.98;;;;;;;4.09;88.56;102747.19;5016960;28;20190;-86
2022/01/25 00:34:30;;;;;;;19.92;12.95;;;;;;;4.08;88.78;102742.78;5019268;28;20049;-85
2022/01/25 00:36:57;;;;;;;23.77;13.38;;;;;;;4.07;88.65;102741.91;5039364;28;20560;-85
2022/01/25 00:39:23;;;;;;;22.85;12.73;;;;;;;4.05;88.01;102740.94;5019091;28;20041;-83
2022/01/25 00:41:51;;;;;;;21.58;13.15;;;;;;;4.06;87.87;102739.25;5012517;28;20286;-85
2022/01/25 00:44:20;;;;;;;20.48;12.90;;;;;;;4.04;87.35;102738.28;5021061;28;20041;-86
2022/01/25 00:46:47;;;;;;;24.80;13.52;;;;;;;4.02;87.69;102743.38;5020063;28;20541;-83
2022/01/25 00:49:27;;;;;;;20.50;12.80;;;;;;;4.00;87.89;102745.00;5038326;28;20061;-86
2022/01/25 00:52:07;;;;;;;23.20;12.93;;;;;;;4.00;87.51;102733.75;5023140;28;20044;-86
2022/01/25 00:54:43;;;;;;;26.20;13.55;;;;;;;4.01;88.33;102741.59;5024879;28;20040;-84
2022/01/25 00:57:11;;;;;;;20.13;12.48;;;;;;;4.04;88.41;102738.28;5021957;28;20048;-85
2022/01/25 00:59:38;;;;;;;20.98;12.45;;;;;;;4.04;88.11;102730.50;5011784;28;20045;-84
2022/01/25 01:02:22;;;;;;;21.67;12.88;;;;;;;4.03;87.83;102729.63;5017954;28;20064;-86
2022/01/25 01:04:49;;;;;;;23.60;12.90;;;;;;;4.05;87.33;102725.38;5004035;28;20047;-83
2022/01/25 01:07:16;;;;;;;20.17;12.10;;;;;;;4.04;87.04;102731.41;5026261;28;20841;-83
2022/01/25 01:09:49;;;;;;;20.80;12.20;;;;;;;4.06;86.89;102731.47;4985566;28;20052;-82
2022/01/25 01:12:35;;;;;;;21.65;12.38;;;;;;;4.06;86.68;102724.59;5030020;28;20056;-84
2022/01/25 01:15:19;;;;;;;22.08;14.32;;;;;;;4.04;85.03;102718.44;5025977;28;20212;-84
2022/01/25 01:31:29;;;;;;;25.08;13.55;;;;;;;4.01;85.54;102696.66;5040888;28;20044;-82
2022/01/25 01:34:38;;;;;;;22.98;13.63;;;;;;;3.99;85.28;102704.38;5030475;28;20616;-86
2022/01/25 01:37:31;;;;;;;20.58;12.93;;;;;;;3.96;85.33;102702.50;5023910;28;20037;-86
2022/01/25 01:40:18;;;;;;;23.17;14.35;;;;;;;3.94;85.45;102698.94;4999620;28;20550;-81
2022/01/25 01:42:57;;;;;;;23.17;13.52;;;;;;;3.93;85.52;102694.56;5031991;28;20130;-84
2022/01/25 01:45:45;;;;;;;20.98;13.35;;;;;;;3.93;85.50;102693.69;5037397;28;20170;-82
2022/01/25 01:48:27;;;;;;;23.20;14.15;;;;;;;3.93;85.96;102688.50;5032224;28;20049;-85
2022/01/25 01:51:03;;;;;;;20.08;13.25;;;;;;;3.92;85.80;102695.34;5017991;28;20570;-84
2022/01/25 01:53:36;;;;;;;23.85;13.50;;;;;;;3.92;85.95;102690.16;5029375;28;20126;-85
2022/01/25 01:56:04;;;;;;;23.57;13.87;;;;;;;3.93;86.02;102691.09;5025560;28;20048;-83
2022/01/25 01:58:31;;;;;;;21.92;12.13;;;;;;;3.94;85.88;102695.47;5030739;28;20961;-83
2022/01/25 02:00:57;;;;;;;26.70;14.00;;;;;;;3.93;85.73;102693.69;5025786;28;20411;-86
2022/01/25 02:03:24;;;;;;;23.63;14.20;;;;;;;3.92;85.98;102689.31;5022051;28;20052;-83
2022/01/25 02:05:51;;;;;;;23.17;14.32;;;;;;;3.92;85.70;102686.72;5030166;28;20453;-84
2022/01/25 02:08:23;;;;;;;23.45;14.93;;;;;;;3.93;86.27;102697.16;5012062;28;20608;-84
2022/01/25 02:10:53;;;;;;;23.58;14.20;;;;;;;3.93;86.10;102698.84;5031979;28;20944;-85
2022/01/25 02:13:19;;;;;;;27.65;14.52;;;;;;;3.91;85.78;102695.28;5015803;28;20550;-84
2022/01/25 02:15:49;;;;;;;25.77;15.32;;;;;;;3.90;85.70;102685.75;5031717;28;21084;-86
2022/01/25 02:23:48;;;;;;;23.88;13.40;;;;;;;3.86;85.92;102674.34;5029457;28;20090;-85
2022/01/25 02:26:15;;;;;;;20.95;13.20;;;;;;;3.89;85.69;102679.66;5046216;28;20905;-84
2022/01/25 02:28:47;;;;;;;24.55;14.13;;;;;;;3.88;85.91;102672.69;5039169;28;20592;-86
2022/01/25 02:31:16;;;;;;;29.58;15.13;;;;;;;3.90;85.70;102683.16;5029584;28;20070;-86
2022/01/25 02:33:44;;;;;;;32.45;15.60;;;;;;;3.88;86.06;102677.00;5054338;28;20649;-84
2022/01/25 02:36:25;;;;;;;24.45;13.75;;;;;;;3.88;86.45;102675.28;5029046;28;20518;-84
2022/01/25 02:38:53;;;;;;;21.25;12.93;;;;;;;3.88;86.42;102672.69;5042780;28;20084;-86
2022/01/25 02:41:20;;;;;;;22.30;13.02;;;;;;;3.88;86.66;102670.09;5026521;28;20059;-85
2022/01/25 02:43:47;;;;;;;24.08;13.13;;;;;;;3.90;86.47;102676.28;5044264;28;20581;-85
2022/01/25 02:48:29;;;;;;;25.30;14.50;;;;;;;3.90;86.83;102678.88;5039862;28;20044;-84
2022/01/25 02:49:08;;;;;;;20.98;12.68;;;;;;;3.91;86.87;102674.56;5046011;28;20044;-85
2022/01/25 02:51:46;;;;;;;23.45;13.60;;;;;;;3.92;87.07;102676.34;5038857;28;20048;-84
2022/01/25 02:54:17;;;;;;;24.77;13.75;;;;;;;3.89;86.84;102682.25;5043113;28;20129;-85
2022/01/25 02:56:52;;;;;;;26.05;13.73;;;;;;;3.89;87.26;102669.31;5045857;28;20127;-83
2022/01/25 02:59:19;;;;;;;25.25;14.80;;;;;;;3.88;87.40;102667.50;5036549;28;20044;-86
2022/01/25 03:01:48;;;;;;;23.52;14.27;;;;;;;3.87;87.32;102665.75;5017958;28;20215;-85
2022/01/25 03:04:20;;;;;;;26.88;16.55;;;;;;;3.89;87.08;102669.31;5038854;28;20059;-83
2022/01/25 03:06:48;;;;;;;25.05;13.82;;;;;;;3.88;87.30;102666.63;5048493;28;20048;-85
2022/01/25 03:09:14;;;;;;;27.55;14.18;;;;;;;3.88;87.13;102666.63;5043248;28;20052;-86
2022/01/25 03:11:43;;;;;;;23.45;15.60;;;;;;;3.87;86.63;102665.75;5039798;28;20052;-83
2022/01/25 03:14:11;;;;;;;25.63;14.93;;;;;;;3.88;86.44;102672.69;5055603;28;20076;-85
2022/01/25 03:16:45;;;;;;;22.83;14.60;;;;;;;3.89;86.57;102673.59;5027188;28;20051;-83
2022/01/25 03:19:43;;;;;;;23.75;14.02;;;;;;;3.90;86.01;102673.69;5043983;28;20238;-85
2022/01/25 03:22:17;;;;;;;23.95;15.10;;;;;;;3.91;86.08;102671.97;5054021;28;20045;-84
2022/01/25 03:24:47;;;;;;;27.27;15.57;;;;;;;3.89;86.72;102673.59;5030011;28;20060;-83
2022/01/25 03:27:16;;;;;;;26.90;15.68;;;;;;;3.87;86.33;102673.53;5046691;28;20099;-82
2022/01/25 03:29:45;;;;;;;24.70;14.20;;;;;;;3.89;86.79;102658.94;5042296;28;20724;-83
2022/01/25 03:32:17;;;;;;;28.27;15.70;;;;;;;3.87;86.92;102673.53;5047075;28;20875;-83
2022/01/25 03:34:43;;;;;;;22.73;14.77;;;;;;;3.87;87.21;102664.84;5024901;28;20398;-85
2022/01/25 03:37:28;;;;;;;28.08;16.02;;;;;;;3.86;87.35;102660.47;5029580;28;20059;-83
2022/01/25 03:39:55;;;;;;;26.77;15.80;;;;;;;3.87;87.72;102652.81;5043893;28;20067;-85
2022/01/25 03:42:22;;;;;;;31.75;17.90;;;;;;;3.87;87.61;102649.31;5040364;28;20041;-83
2022/01/25 03:44:50;;;;;;;29.25;16.52;;;;;;;3.84;87.63;102652.63;5045031;28;20068;-85
2022/01/25 03:47:22;;;;;;;31.08;18.13;;;;;;;3.84;87.30;102659.53;5041633;28;20058;-83
2022/01/25 03:49:49;;;;;;;33.47;17.73;;;;;;;3.82;87.15;102662.03;5046432;28;20091;-85
2022/01/25 03:52:29;;;;;;;31.90;18.67;;;;;;;3.83;87.08;102660.31;5030776;28;21266;-81
2022/01/25 03:54:56;;;;;;;34.50;18.38;;;;;;;3.83;87.01;102656.03;5034709;28;21373;-85
2022/01/25 03:57:23;;;;;;;35.67;18.13;;;;;;;3.83;87.09;102648.25;5037119;28;20071;-85
2022/01/25 03:59:49;;;;;;;36.00;19.38;;;;;;;3.84;87.17;102652.63;5053090;28;20059;-84
2022/01/25 04:02:16;;;;;;;34.25;18.15;;;;;;;3.85;87.43;102656.13;5062513;28;20049;-84
2022/01/25 04:04:43;;;;;;;38.28;20.30;;;;;;;3.84;87.10;102651.75;5062220;28;20055;-82
2022/01/25 04:07:10;;;;;;;37.35;20.13;;;;;;;3.83;87.19;102657.75;5058314;28;20045;-84
2022/01/25 04:09:38;;;;;;;40.20;21.67;;;;;;;3.83;87.51;102644.78;5062861;28;20044;-85
2022/01/25 04:12:06;;;;;;;38.88;21.30;;;;;;;3.82;87.37;102649.09;5042370;28;20044;-83
2022/01/25 04:14:33;;;;;;;34.83;20.67;;;;;;;3.80;87.98;102643.81;5055755;28;20087;-85
2022/01/25 04:17:03;;;;;;;38.30;22.63;;;;;;;3.82;87.56;102659.44;5053603;28;20060;-83
2022/01/25 04:19:35;;;;;;;43.88;23.77;;;;;;;3.79;87.51;102657.59;5022684;28;20046;-84
2022/01/25 04:25:13;;;;;;;38.00;21.10;;;;;;;3.77;87.82;102650.56;5039860;28;20123;-82
2022/01/25 04:27:40;;;;;;;43.40;20.73;;;;;;;3.76;88.07;102643.59;5018388;28;20053;-86
2022/01/25 04:30:08;;;;;;;41.42;21.58;;;;;;;3.76;87.68;102648.78;5018550;28;22859;-85
2022/01/25 04:32:43;;;;;;;42.75;22.20;;;;;;;3.74;87.81;102647.78;5038157;28;20060;-84
2022/01/25 04:35:27;;;;;;;43.10;21.55;;;;;;;3.71;87.83;102647.63;5021710;28;20044;-85
2022/01/25 04:49:09;;;;;;;48.25;24.08;;;;;;;3.62;88.20;102641.19;4987860;28;20053;-85
2022/01/25 04:51:54;;;;;;;43.17;24.27;;;;;;;3.61;88.53;102643.66;5014922;28;20780;-86
2022/01/25 04:54:34;;;;;;;;;;;;;;;3.58;88.68;102634.03;5023742;28;20056;-85
2022/01/25 04:57:14;;;;;;;47.10;24.08;;;;;;;3.58;88.69;102633.16;5038578;28;20750;-85
2022/01/25 04:59:50;;;;;;;42.08;22.52;;;;;;;3.55;89.03;102633.91;5052234;28;20059;-86
2022/01/25 05:02:21;;;;;;;51.30;24.40;;;;;;;3.56;88.75;102647.72;5031884;28;20053;-86
2022/01/25 05:04:53;;;;;;;50.45;25.98;;;;;;;3.54;88.83;102637.28;5012840;28;20041;-84
2022/01/25 05:07:32;;;;;;;46.53;25.15;;;;;;;3.52;89.07;102628.56;5002559;28;20049;-86
2022/01/25 05:10:02;;;;;;;47.20;24.95;;;;;;;3.50;88.93;102631.88;5015064;28;20053;-87
2022/01/25 05:12:38;;;;;;;42.42;24.48;;;;;;;3.48;89.30;102630.09;5000435;28;20055;-86
2022/01/25 05:15:20;;;;;;;39.20;23.27;;;;;;;3.51;89.28;102634.56;5025213;28;20052;-86
2022/01/25 05:17:59;;;;;;;45.25;23.33;;;;;;;3.52;89.18;102638.94;5045469;28;20067;-85
2022/01/25 05:23:10;;;;;;;;;;;;;;;3.51;89.38;102642.31;5040159;28;20036;-84
2022/01/25 05:25:37;;;;;;;43.55;22.08;;;;;;;3.49;89.32;102643.94;5035263;28;19924;-84
2022/01/25 05:28:07;;;;;;;45.17;24.60;;;;;;;3.47;89.26;102653.34;5038276;28;20036;-83
2022/01/25 05:30:36;;;;;;;44.75;24.73;;;;;;;3.46;89.22;102659.31;5038943;28;20405;-84
2022/01/25 05:33:05;;;;;;;39.80;22.63;;;;;;;3.43;89.24;102660.03;5029951;28;20114;-84
2022/01/25 05:35:32;;;;;;;45.88;24.17;;;;;;;3.42;89.15;102658.25;5053480;28;20048;-83
2022/01/25 05:37:59;;;;;;;48.50;24.42;;;;;;;3.42;89.42;102660.84;5047902;28;20048;-83
2022/01/25 05:40:41;;;;;;;40.15;20.90;;;;;;;3.43;89.48;102656.56;5032414;28;20053;-84
2022/01/25 05:46:12;;;;;;;43.63;23.98;;;;;;;3.47;88.58;102661.09;5047439;28;20036;-82
2022/01/25 05:48:41;;;;;;;42.20;22.77;;;;;;;3.47;87.49;102656.81;5036631;28;20771;-84
2022/01/25 05:51:11;;;;;;;40.00;21.73;;;;;;;3.47;87.03;102661.09;5029289;28;20501;-84
2022/01/25 05:53:40;;;;;;;43.22;21.77;;;;;;;3.46;86.98;102660.19;5036702;28;20090;-86
2022/01/25 05:56:16;;;;;;;40.65;21.00;;;;;;;3.44;86.43;102659.25;5045942;28;20048;-85
2022/01/25 05:58:44;;;;;;;45.17;23.02;;;;;;;3.45;86.58;102667.88;5007630;28;20139;-86
2022/01/25 06:01:12;;;;;;;43.50;21.35;;;;;;;3.47;86.74;102668.88;5052436;28;20064;-86
2022/01/25 06:03:41;;;;;;;37.85;20.98;;;;;;;3.48;86.65;102666.34;5034710;28;20040;-86
2022/01/25 06:06:15;;;;;;;37.22;18.48;;;;;;;3.48;86.34;102668.03;5051369;28;20053;-85
2022/01/25 06:08:42;;;;;;;40.40;20.98;;;;;;;3.48;86.40;102661.19;5036102;28;20055;-85
2022/01/25 06:11:09;;;;;;;41.15;20.98;;;;;;;3.48;85.00;102666.34;5035287;28;20525;-83
2022/01/25 06:13:36;;;;;;;35.38;19.20;;;;;;;3.46;84.51;102667.09;5029952;28;20052;-85
2022/01/25 06:16:07;;;;;;;39.67;21.70;;;;;;;3.43;84.11;102656.56;5035970;28;20060;-86
2022/01/25 06:18:35;;;;;;;38.75;20.13;;;;;;;3.42;84.25;102663.44;5055062;28;20046;-85
2022/01/25 06:21:08;;;;;;;45.50;23.95;;;;;;;3.40;83.88;102664.16;5054219;28;20059;-85
2022/01/25 06:23:38;;;;;;;36.42;18.83;;;;;;;3.40;83.92;102667.66;5042540;28;20569;-84
2022/01/25 06:26:08;;;;;;;42.75;20.42;;;;;;;3.38;83.60;102664.09;5044667;28;20120;-88
2022/01/25 06:28:36;;;;;;;39.63;21.17;;;;;;;3.36;84.22;102663.09;5056127;28;20817;-87
2022/01/25 06:33:54;;;;;;;43.13;21.38;;;;;;;3.38;84.44;102673.56;5056570;28;20063;-86
2022/01/25 06:36:21;;;;;;;34.63;18.85;;;;;;;3.37;84.49;102670.06;5059378;28;20099;-87
2022/01/25 06:38:48;;;;;;;36.65;16.75;;;;;;;3.38;84.48;102674.44;5076192;28;20024;-87
2022/01/25 06:41:18;;;;;;;39.75;20.20;;;;;;;3.38;84.69;102673.56;5062880;28;20040;-87
2022/01/25 06:43:45;;;;;;;32.75;17.88;;;;;;;3.38;84.31;102676.16;5077243;28;20103;-86
2022/01/25 06:46:12;;;;;;;33.83;19.45;;;;;;;3.38;84.43;102678.75;5092281;28;20155;-86
2022/01/25 06:48:41;;;;;;;37.83;17.95;;;;;;;3.36;84.60;102670.88;5052907;28;20111;-85
2022/01/25 06:51:09;;;;;;;32.75;17.10;;;;;;;3.35;84.41;102674.28;5030147;28;20078;-85
2022/01/25 06:53:41;;;;;;;33.17;18.27;;;;;;;3.34;84.66;102677.69;5028901;28;20127;-85
2022/01/25 06:56:09;;;;;;;35.08;19.88;;;;;;;3.34;84.72;102663.81;5048139;28;20501;-85
2022/01/25 06:58:41;;;;;;;36.60;18.65;;;;;;;3.34;84.80;102667.31;5042022;28;20138;-84
2022/01/25 07:01:13;;;;;;;33.78;19.42;;;;;;;3.33;84.68;102667.25;5056343;28;20127;-86
2022/01/25 07:03:39;;;;;;;42.80;18.92;;;;;;;3.30;84.48;102665.38;5054239;28;20044;-84
2022/01/25 07:06:06;;;;;;;32.78;17.63;;;;;;;3.28;84.79;102664.41;5038486;28;20059;-86
2022/01/25 07:08:33;;;;;;;34.38;17.40;;;;;;;3.29;84.75;102668.78;5034059;28;20405;-84
2022/01/25 07:10:59;;;;;;;31.88;16.42;;;;;;;3.28;84.89;102665.28;5034198;28;20508;-85
2022/01/25 07:13:28;;;;;;;44.22;19.73;;;;;;;3.28;85.33;102662.69;5045940;28;21201;-86
2022/01/25 07:15:55;;;;;;;39.97;18.95;;;;;;;3.29;85.46;102663.59;5031233;28;20052;-84
2022/01/25 07:18:21;;;;;;;40.00;19.60;;;;;;;3.31;85.22;102664.56;5033161;28;20041;-87
2022/01/25 07:20:48;;;;;;;40.33;19.52;;;;;;;3.32;85.38;102681.88;5016828;28;20098;-83
2022/01/25 07:23:18;;;;;;;35.70;16.83;;;;;;;3.31;85.33;102678.41;4997570;28;20048;-87
2022/01/25 07:25:45;;;;;;;35.55;17.60;;;;;;;3.31;85.15;102674.91;5009449;28;20163;-86
2022/01/25 07:28:12;;;;;;;34.05;16.98;;;;;;;3.30;85.36;102676.63;5028444;28;21296;-86
2022/01/25 07:30:39;;;;;;;36.72;20.05;;;;;;;3.30;85.63;102673.16;5029091;28;20491;-85
2022/01/25 07:33:07;;;;;;;36.75;19.50;;;;;;;3.30;85.57;102676.63;5008404;28;20135;-85
2022/01/25 07:35:43;;;;;;;42.95;20.48;;;;;;;3.29;85.58;102668.78;5030106;28;20124;-86
2022/01/25 07:38:15;;;;;;;35.20;18.95;;;;;;;3.27;85.68;102673.88;5008614;28;20180;-85
2022/01/25 08:04:00;;;;;;;47.03;20.65;;;;;;;3.38;85.99;102689.09;4766657;29;20545;-85
2022/01/25 08:06:28;;;;;;;38.28;18.77;;;;;;;3.40;86.31;102677.09;4914493;28;20050;-87
2022/01/25 08:08:56;;;;;;;33.38;18.15;;;;;;;3.39;86.21;102684.00;4963188;28;20502;-85
2022/01/25 08:11:25;;;;;;;38.25;17.85;;;;;;;3.42;86.63;102683.28;5013652;28;20147;-85
2022/01/25 08:13:54;;;;;;;43.20;22.27;;;;;;;3.43;86.45;102679.88;5033906;28;20056;-86
2022/01/25 08:16:22;;;;;;;40.17;19.25;;;;;;;3.43;86.24;102682.47;5068140;28;20158;-84
2022/01/25 08:18:49;;;;;;;42.38;21.02;;;;;;;3.45;86.21;102684.28;5084286;28;20043;-86
2022/01/25 08:21:16;;;;;;;43.33;21.35;;;;;;;3.45;86.00;102686.88;5084741;28;20752;-86
2022/01/25 08:23:43;;;;;;;46.72;22.13;;;;;;;3.45;86.06;102678.25;5069463;28;20059;-85
2022/01/25 08:26:14;;;;;;;42.58;22.45;;;;;;;3.45;86.17;102679.13;5085773;28;20107;-86
2022/01/25 08:28:44;;;;;;;43.30;21.23;;;;;;;3.43;85.57;102678.16;5068274;28;20052;-85
2022/01/25 08:31:12;;;;;;;48.17;22.05;;;;;;;3.42;86.30;102676.38;5080369;28;20044;-86
2022/01/25 08:33:40;;;;;;;40.80;20.23;;;;;;;3.44;86.05;102681.63;5078293;28;20044;-85
2022/01/25 08:36:07;;;;;;;45.97;22.02;;;;;;;3.44;85.98;102692.00;5065964;28;20055;-86
2022/01/25 08:38:34;;;;;;;36.17;18.92;;;;;;;3.44;86.24;102681.63;5058731;28;20055;-85
2022/01/25 08:41:01;;;;;;;43.15;22.33;;;;;;;3.43;85.92;102678.16;5061981;28;20047;-85
2022/01/25 08:43:44;;;;;;;37.25;20.50;;;;;;;3.46;85.98;102672.25;5054156;28;20054;-85
2022/01/25 08:46:21;;;;;;;41.77;20.43;;;;;;;3.42;85.48;102688.44;5066281;28;20677;-87
2022/01/25 08:48:55;;;;;;;47.38;24.25;;;;;;;3.38;86.18;102689.97;5069680;28;20290;-85
2022/01/25 08:51:23;;;;;;;40.90;22.48;;;;;;;3.34;86.09;102692.31;5069902;28;20115;-84
2022/01/25 08:53:51;;;;;;;45.70;20.52;;;;;;;3.30;86.26;102697.31;5057432;28;20054;-85
2022/01/25 08:56:17;;;;;;;47.97;23.08;;;;;;;3.27;86.84;102696.25;5071467;28;20039;-85
2022/01/25 08:58:47;;;;;;;43.92;21.88;;;;;;;3.25;87.35;102706.53;5083801;28;20043;-87
2022/01/25 09:01:13;;;;;;;43.92;21.33;;;;;;;3.28;87.16;102701.53;5036841;28;20481;-85
2022/01/25 09:03:49;;;;;;;43.88;20.45;;;;;;;3.33;87.37;102695.72;5053526;28;20056;-87
2022/01/25 09:06:16;;;;;;;37.25;18.73;;;;;;;3.36;86.91;102699.34;5061447;28;20089;-85
2022/01/25 09:08:43;;;;;;;48.63;20.48;;;;;;;3.41;87.33;102697.00;5051948;28;20044;-86
2022/01/25 09:11:10;;;;;;;41.50;19.80;;;;;;;3.42;86.72;102697.09;5059244;28;20036;-84
2022/01/25 09:13:37;;;;;;;44.33;21.88;;;;;;;3.43;86.94;102705.78;5052040;28;20590;-86
2022/01/25 09:16:04;;;;;;;43.45;20.85;;;;;;;3.45;87.10;102702.41;5046280;28;20068;-87
2022/01/25 09:18:31;;;;;;;45.17;22.60;;;;;;;3.47;87.02;102695.63;5044862;28;20237;-85
2022/01/25 09:20:58;;;;;;;46.75;21.30;;;;;;;3.50;87.11;102709.56;5019999;28;20104;-87
2022/01/25 09:23:27;;;;;;;49.15;21.52;;;;;;;3.48;86.91;102705.19;5021812;28;20306;-87
2022/01/25 09:25:55;;;;;;;43.70;22.58;;;;;;;3.42;87.38;102715.22;5040516;28;20117;-84
2022/01/25 09:30:57;;;;;;;45.67;21.52;;;;;;;3.44;87.38;102710.13;3394296;26;20962;-87
2022/01/25 09:33:26;;;;;;;47.70;21.55;;;;;;;3.45;87.58;102709.31;5072687;28;20104;-87
2022/01/25 09:35:58;;;;;;;45.85;21.65;;;;;;;3.42;87.44;102712.63;5067021;28;20097;-87
2022/01/25 09:38:26;;;;;;;46.72;22.58;;;;;;;3.41;87.61;102708.25;5072013;28;20050;-86
2022/01/25 09:40:53;;;;;;;40.67;21.05;;;;;;;3.42;88.08;102710.03;5074361;28;20047;-88
2022/01/25 09:43:23;;;;;;;45.45;20.35;;;;;;;3.44;87.96;102711.03;5090970;27;20046;-88
2022/01/25 09:45:50;;;;;;;42.58;21.05;;;;;;;3.41;87.79;102710.84;5069490;28;20142;-89
2022/01/25 09:48:18;;;;;;;41.08;21.48;;;;;;;3.42;88.42;102710.03;5073881;28;20078;-87
2022/01/25 09:50:45;;;;;;;44.78;22.83;;;;;;;3.42;88.04;102712.63;5041557;28;20579;-88
2022/01/25 09:53:12;;;;;;;47.50;23.67;;;;;;;3.42;88.62;102709.16;5036929;28;20043;-87
2022/01/25 09:55:42;;;;;;;53.90;23.10;;;;;;;3.38;89.00;102715.00;5043649;28;20143;-86
2022/01/25 09:58:13;;;;;;;45.13;23.80;;;;;;;3.37;89.26;102710.59;5052736;28;20052;-86
2022/01/25 10:00:44;;;;;;;42.05;22.90;;;;;;;3.37;89.86;102713.19;5058815;28;20920;-87
2022/01/25 10:03:19;;;;;;;50.50;25.23;;;;;;;3.35;89.67;102713.13;5040898;28;20448;-87
2022/01/25 10:05:48;;;;;;;48.47;22.92;;;;;;;3.31;90.05;102718.91;5038693;28;20048;-86
2022/01/25 10:08:20;;;;;;;45.95;20.90;;;;;;;3.31;90.19;102724.09;5060497;28;20052;-82
2022/01/25 10:11:03;;;;;;;51.40;22.70;;;;;;;3.35;89.85;102719.97;5039650;28;20048;-86
2022/01/25 10:13:40;;;;;;;48.90;21.58;;;;;;;3.38;90.04;102715.88;5057900;28;20051;-88
2022/01/25 10:16:14;;;;;;;48.85;23.38;;;;;;;3.39;89.85;102719.31;5051881;28;20040;-89
2022/01/25 10:18:52;;;;;;;48.78;24.13;;;;;;;3.38;90.08;102722.75;5043167;28;20044;-87
2022/01/25 10:21:27;;;;;;;48.05;22.77;;;;;;;3.40;90.06;102723.72;5055164;28;20147;-85
2022/01/25 10:24:13;;;;;;;48.33;22.13;;;;;;;3.43;90.18;102719.59;5050768;28;20090;-89
2022/01/25 10:26:57;;;;;;;49.03;23.02;;;;;;;3.46;90.00;102718.88;5056384;28;20045;-87
2022/01/25 10:29:36;;;;;;;46.27;23.80;;;;;;;3.47;89.96;102718.06;5038869;28;20047;-89
2022/01/25 10:32:15;;;;;;;45.20;21.20;;;;;;;3.48;89.75;102720.72;5039791;28;20301;-90
2022/01/25 10:34:50;;;;;;;45.15;21.10;;;;;;;3.50;90.27;102709.56;5054759;28;20165;-87
2022/01/25 10:37:22;;;;;;;44.50;21.70;;;;;;;3.52;90.10;102708.84;5040390;28;20135;-87
2022/01/25 10:39:52;;;;;;;50.55;22.70;;;;;;;3.53;90.34;102707.13;5043226;28;20040;-89
2022/01/25 10:42:29;;;;;;;42.53;21.50;;;;;;;3.49;90.87;102708.66;5037823;28;20048;-87
2022/01/25 10:44:58;;;;;;;55.22;22.40;;;;;;;3.51;91.28;102709.66;5040089;28;20040;-88
2022/01/25 10:47:45;;;;;;;43.33;21.33;;;;;;;3.51;90.76;102711.31;5039974;28;20048;-87
2022/01/25 10:50:35;;;;;;;41.50;19.25;;;;;;;3.50;91.06;102707.84;5057627;28;20055;-88
2022/01/25 10:53:08;;;;;;;42.28;19.98;;;;;;;3.51;91.18;102712.25;5065075;28;20430;-90
2022/01/25 10:55:52;;;;;;;43.35;22.98;;;;;;;3.52;91.21;102715.69;5038629;28;20576;-87
2022/01/25 10:58:21;;;;;;;40.75;21.48;;;;;;;3.54;91.80;102712.38;5043649;28;20423;-90
2022/01/25 11:00:52;;;;;;;43.92;21.10;;;;;;;3.55;91.28;102706.41;5052800;28;20050;-86
2022/01/25 11:03:36;;;;;;;46.25;21.88;;;;;;;3.60;91.79;102709.25;5019479;28;20105;-86
2022/01/25 11:06:18;;;;;;;41.92;19.88;;;;;;;3.61;91.69;102703.25;5051386;28;20047;-86
2022/01/25 11:08:50;;;;;;;42.83;20.52;;;;;;;3.59;91.84;102705.75;5042181;28;20073;-86
2022/01/25 11:11:29;;;;;;;47.45;21.45;;;;;;;3.56;91.88;102703.00;5036925;28;20126;-88
2022/01/25 11:14:00;;;;;;;38.83;19.52;;;;;;;3.54;91.60;102707.22;5039492;28;20050;-86
2022/01/25 11:16:26;;;;;;;45.08;20.77;;;;;;;3.52;92.04;102703.66;5041726;28;20052;-87
2022/01/25 11:18:53;;;;;;;42.67;22.40;;;;;;;3.53;91.92;102707.13;5052622;28;20423;-88
2022/01/25 11:21:21;;;;;;;42.90;21.75;;;;;;;3.50;92.37;102701.81;5039144;28;20091;-86
2022/01/25 11:23:48;;;;;;;47.85;21.35;;;;;;;3.48;92.63;102702.59;5069099;28;20118;-87
2022/01/25 11:26:16;;;;;;;48.08;22.63;;;;;;;3.51;92.60;102698.38;5058791;28;20044;-87
2022/01/25 11:28:45;;;;;;;42.70;20.65;;;;;;;3.51;92.54;102699.28;5039303;28;20048;-88
2022/01/25 11:31:18;;;;;;;42.38;21.25;;;;;;;3.53;92.34;102696.78;5039716;28;20064;-88
2022/01/25 11:33:48;;;;;;;45.70;19.95;;;;;;;3.53;92.70;102695.06;5038912;28;20040;-86
2022/01/25 11:36:15;;;;;;;42.78;21.98;;;;;;;3.55;92.66;102705.53;5050967;28;20537;-89
2022/01/25 11:38:48;;;;;;;47.55;20.85;;;;;;;3.57;93.05;102697.03;5055515;28;20071;-85
2022/01/25 11:41:21;;;;;;;45.17;22.52;;;;;;;3.59;92.93;102692.81;5046821;28;21026;-86
2022/01/25 11:44:07;;;;;;;38.63;18.45;;;;;;;3.60;92.93;102691.13;5037379;28;20430;-89
2022/01/25 11:46:35;;;;;;;40.95;20.85;;;;;;;3.61;92.95;102688.59;5055578;28;20587;-86
2022/01/25 11:49:18;;;;;;;40.92;19.90;;;;;;;3.62;93.02;102687.81;5055261;28;20483;-86
2022/01/25 11:52:07;;;;;;;41.30;19.33;;;;;;;3.62;93.08;102684.31;5038279;28;20054;-88
2022/01/25 11:54:36;;;;;;;46.80;22.20;;;;;;;3.62;93.37;102677.44;5052999;28;20048;-86
2022/01/25 11:57:24;;;;;;;41.65;19.08;;;;;;;3.63;93.63;102679.19;5050193;28;20536;-87
2022/01/25 11:59:59;;;;;;;45.50;19.92;;;;;;;3.64;93.58;102675.81;5052866;28;22968;-86
2022/01/25 12:02:57;;;;;;;41.95;19.15;;;;;;;3.64;93.39;102669.75;5037181;28;21298;-88
2022/01/25 12:05:26;;;;;;;51.17;19.25;;;;;;;3.59;93.42;102664.31;5024900;28;20197;-90
2022/01/25 12:08:24;;;;;;;41.20;20.23;;;;;;;3.54;93.94;102673.53;5054725;28;20136;-87
2022/01/25 12:10:58;;;;;;;39.75;19.55;;;;;;;3.56;93.98;102677.13;5040100;28;20049;-87
2022/01/25 12:13:32;;;;;;;40.90;21.40;;;;;;;3.56;94.15;102671.94;5053141;28;20054;-89
2022/01/25 12:16:23;;;;;;;42.88;20.35;;;;;;;3.56;94.12;102660.66;5054946;28;20483;-87
2022/01/25 12:19:02;;;;;;;42.90;20.73;;;;;;;3.55;94.24;102658.91;5051529;28;20040;-85
2022/01/25 12:21:47;;;;;;;42.92;20.65;;;;;;;3.53;94.24;102651.03;5054754;28;20580;-87
2022/01/25 12:24:25;;;;;;;49.38;21.60;;;;;;;3.54;94.25;102644.19;5068810;28;20103;-87
2022/01/25 12:27:19;;;;;;;42.90;20.13;;;;;;;3.55;94.19;102635.59;5052644;28;20091;-86
2022/01/25 12:30:12;;;;;;;49.20;21.75;;;;;;;3.51;94.38;102631.97;5035490;28;20056;-86
2022/01/25 12:32:51;;;;;;;47.05;22.17;;;;;;;3.52;94.56;102625.97;5034674;28;20063;-87
2022/01/25 12:35:21;;;;;;;48.42;21.48;;;;;;;3.61;94.54;102622.94;5069079;28;20051;-87
2022/01/25 12:37:53;;;;;;;43.63;20.70;;;;;;;3.83;94.53;102622.34;5038597;28;20044;-87
2022/01/25 12:40:26;;;;;;;48.72;21.50;;;;;;;4.16;91.49;102611.00;5072835;28;20051;-87
2022/01/25 12:42:57;;;;;;;48.88;21.92;;;;;;;4.39;91.16;102607.81;5049206;28;20052;-86
2022/01/25 12:45:27;;;;;;;43.85;21.23;;;;;;;4.67;88.90;102608.22;5052628;28;20052;-88
2022/01/25 12:48:02;;;;;;;39.72;21.23;;;;;;;4.75;87.79;102606.91;5049153;28;20060;-89
2022/01/25 12:50:30;;;;;;;45.25;20.48;;;;;;;4.81;87.58;102604.59;5050295;28;20051;-89
2022/01/25 12:53:01;;;;;;;48.20;22.35;;;;;;;4.91;86.99;102601.56;5034980;28;20107;-89
2022/01/25 12:55:33;;;;;;;37.90;19.40;;;;;;;4.89;86.18;102592.84;5047807;28;20050;-87
2022/01/25 12:58:02;;;;;;;42.13;20.45;;;;;;;4.84;86.75;102602.13;5055173;28;20040;-87
2022/01/25 13:00:39;;;;;;;39.58;19.25;;;;;;;4.87;86.26;102596.19;5033442;28;20048;-86
2022/01/25 13:03:17;;;;;;;42.20;19.02;;;;;;;4.82;85.80;102589.91;5035961;28;20410;-89